Flight Information

DEPARTURE
SANTA ANA, CA
Elevation:
56
Runways:
2R/20L - 2887x75 - ASPH-G
2L/20R - 5701x150 - ASPH-G
ATIS:
126 714-546-2279
Clearance Delivery:
118.0 121.85
Ground:
120.8 (East) 132.25 (West)
Tower:
119.9 (Rwy 2R-20L) 126.8 (Rwy 2L-20R)
DESTINATION
,
Elevation:
TPA:
1000 (est.)


6773.3 NM74° True-14° Var60° HDG

Flight Plan:
(click to file on line)

1. Type
2. Aircraft Identification
3. Aircraft Type / Special Equipment
4. True Airspeed
kts
5. Departure Airport
(ICAO code)
6. Arriving Airport
(ICAO code)
7. Cruising Altitude
ft
8. Alternate Airport
(ICAO code)
9. Route of Flight
10. Remarks


00:00:00 Departure ATIS: Destination ATIS:

Clearance Limit:
Route:
Altitude: Expect in minutes
Frequency:
Transponder: (7500 Hijack / 7600 Lost Comms / 7700 Emergency)


KSNA 221553Z 12004KT 10SM SCT024 SCT028 BKN170 14/10 A3002 RMK AO2 SLP164 T01390100
Time: 2021-01-22T15:53:00Z
1611331080
Winds: 120 @ 4 kts
Visibility: 10.0 sm
Clouds (AGL): SCT 2400
SCT 2800
BKN 17000
Temperature: 13.9 C
Dew Point: 10.0 C
Pressure: 30.02067 in Hgbr


Notes:

Data extracted from FAA Digital Chart Supplement. Effective: 0901Z Thursday, Dec 31, 2020 to 0901Z Thursday, Jan 28, 2021
Current ATIS data is provided courtisy of PilotEdge.